sensor_id;sensor_type;location;lat;lon;timestamp;pressure;altitude;pressure_sealevel;temperature;humidity
3844;BME280;1937;51.444;6.484;2023-04-25T00:01:16;67042.00;;;6.76;87.26
3844;BME280;1937;51.444;6.484;2023-04-25T00:03:44;66890.94;;;6.83;88.76
3844;BME280;1937;51.444;6.484;2023-04-25T00:06:10;66962.78;;;6.81;87.80
3844;BME280;1937;51.444;6.484;2023-04-25T00:08:37;66987.44;;;7.05;87.52
3844;BME280;1937;51.444;6.484;2023-04-25T00:11:04;66937.91;;;7.02;88.25
3844;BME280;1937;51.444;6.484;2023-04-25T00:13:31;66937.84;;;7.13;87.79
3844;BME280;1937;51.444;6.484;2023-04-25T00:15:59;66976.69;;;7.35;87.48
3844;BME280;1937;51.444;6.484;2023-04-25T00:18:26;66969.41;;;7.43;87.51
3844;BME280;1937;51.444;6.484;2023-04-25T00:20:54;67027.56;;;7.49;87.31
3844;BME280;1937;51.444;6.484;2023-04-25T00:23:21;67023.53;;;7.61;86.80
3844;BME280;1937;51.444;6.484;2023-04-25T00:25:49;66915.16;;;7.31;86.35
3844;BME280;1937;51.444;6.484;2023-04-25T00:28:16;67029.38;;;7.55;86.84
3844;BME280;1937;51.444;6.484;2023-04-25T00:30:43;67040.88;;;7.60;87.18
3844;BME280;1937;51.444;6.484;2023-04-25T00:33:11;67031.72;;;7.57;86.89
3844;BME280;1937;51.444;6.484;2023-04-25T00:35:37;67085.22;;;7.43;87.26
3844;BME280;1937;51.444;6.484;2023-04-25T00:38:04;67034.50;;;7.55;86.79
3844;BME280;1937;51.444;6.484;2023-04-25T00:40:31;67018.81;;;7.52;86.96
3844;BME280;1937;51.444;6.484;2023-04-25T00:42:57;67035.03;;;7.66;85.86
3844;BME280;1937;51.444;6.484;2023-04-25T00:45:27;67047.81;;;7.51;86.88
3844;BME280;1937;51.444;6.484;2023-04-25T00:47:54;67058.34;;;7.37;87.16
3844;BME280;1937;51.444;6.484;2023-04-25T00:50:23;67012.84;;;7.38;87.38
3844;BME280;1937;51.444;6.484;2023-04-25T00:52:50;67034.25;;;7.41;88.77
3844;BME280;1937;51.444;6.484;2023-04-25T00:55:17;67047.09;;;7.57;87.90
3844;BME280;1937;51.444;6.484;2023-04-25T00:57:43;67087.28;;;7.47;87.39
3844;BME280;1937;51.444;6.484;2023-04-25T01:00:11;67065.22;;;7.39;88.67
3844;BME280;1937;51.444;6.484;2023-04-25T01:02:39;66980.22;;;7.43;88.65
3844;BME280;1937;51.444;6.484;2023-04-25T01:05:07;67077.16;;;7.67;87.76
3844;BME280;1937;51.444;6.484;2023-04-25T01:07:35;67021.81;;;7.59;88.01
3844;BME280;1937;51.444;6.484;2023-04-25T01:10:02;67065.94;;;7.60;87.61
3844;BME280;1937;51.444;6.484;2023-04-25T01:12:29;66997.84;;;7.56;87.06
3844;BME280;1937;51.444;6.484;2023-04-25T01:14:56;66941.31;;;7.31;87.50
3844;BME280;1937;51.444;6.484;2023-04-25T01:17:22;67082.06;;;7.69;87.28
3844;BME280;1937;51.444;6.484;2023-04-25T01:19:49;67082.19;;;7.47;87.73
3844;BME280;1937;51.444;6.484;2023-04-25T01:22:18;67041.88;;;7.52;88.10
3844;BME280;1937;51.444;6.484;2023-04-25T01:24:45;67144.59;;;7.66;88.05
3844;BME280;1937;51.444;6.484;2023-04-25T01:27:12;67075.28;;;7.72;88.07
3844;BME280;1937;51.444;6.484;2023-04-25T01:29:38;67027.03;;;7.64;88.33
3844;BME280;1937;51.444;6.484;2023-04-25T01:32:06;67064.84;;;7.63;87.41
3844;BME280;1937;51.444;6.484;2023-04-25T01:34:33;67027.91;;;7.67;87.96
3844;BME280;1937;51.444;6.484;2023-04-25T01:37:00;67125.53;;;7.80;87.09
3844;BME280;1937;51.444;6.484;2023-04-25T01:39:28;67153.38;;;7.78;86.92
3844;BME280;1937;51.444;6.484;2023-04-25T01:41:55;67081.09;;;7.77;87.15
3844;BME280;1937;51.444;6.484;2023-04-25T01:44:23;67063.38;;;7.60;88.15
3844;BME280;1937;51.444;6.484;2023-04-25T01:46:49;67058.56;;;7.62;88.13
3844;BME280;1937;51.444;6.484;2023-04-25T01:49:16;67089.41;;;7.40;88.75
3844;BME280;1937;51.444;6.484;2023-04-25T01:51:43;67039.91;;;7.53;89.34
3844;BME280;1937;51.444;6.484;2023-04-25T01:54:10;67134.72;;;7.57;88.82
3844;BME280;1937;51.444;6.484;2023-04-25T01:56:39;67011.16;;;7.52;88.83
3844;BME280;1937;51.444;6.484;2023-04-25T01:59:05;67060.75;;;7.44;89.04
3844;BME280;1937;51.444;6.484;2023-04-25T02:01:32;67066.56;;;7.49;89.35
3844;BME280;1937;51.444;6.484;2023-04-25T02:03:59;67025.00;;;7.49;89.29
3844;BME280;1937;51.444;6.484;2023-04-25T02:06:25;67065.97;;;7.49;88.78
3844;BME280;1937;51.444;6.484;2023-04-25T02:08:52;67014.88;;;7.53;88.99
3844;BME280;1937;51.444;6.484;2023-04-25T02:11:19;67039.03;;;7.38;90.07
3844;BME280;1937;51.444;6.484;2023-04-25T02:13:47;67009.31;;;7.04;90.42
3844;BME280;1937;51.444;6.484;2023-04-25T02:16:13;67050.59;;;7.33;91.00
3844;BME280;1937;51.444;6.484;2023-04-25T02:18:40;67026.47;;;7.36;90.43
3844;BME280;1937;51.444;6.484;2023-04-25T02:21:06;66944.72;;;7.30;90.11
3844;BME280;1937;51.444;6.484;2023-04-25T02:23:33;67049.69;;;7.30;90.35
3844;BME280;1937;51.444;6.484;2023-04-25T02:26:00;67032.09;;;7.48;88.95
3844;BME280;1937;51.444;6.484;2023-04-25T02:28:26;67121.06;;;7.43;88.95
3844;BME280;1937;51.444;6.484;2023-04-25T02:30:54;67043.81;;;7.36;89.28
3844;BME280;1937;51.444;6.484;2023-04-25T02:33:21;67007.78;;;7.27;88.90
3844;BME280;1937;51.444;6.484;2023-04-25T02:35:47;67006.31;;;7.23;90.36
3844;BME280;1937;51.444;6.484;2023-04-25T02:38:14;66981.53;;;7.22;90.45
3844;BME280;1937;51.444;6.484;2023-04-25T02:40:41;67010.41;;;7.16;91.35
3844;BME280;1937;51.444;6.484;2023-04-25T02:43:07;67059.22;;;6.98;90.67
3844;BME280;1937;51.444;6.484;2023-04-25T02:45:34;67034.22;;;6.98;91.40
3844;BME280;1937;51.444;6.484;2023-04-25T02:48:03;66991.97;;;7.04;91.29
3844;BME280;1937;51.444;6.484;2023-04-25T02:50:30;67047.59;;;7.26;91.15
3844;BME280;1937;51.444;6.484;2023-04-25T02:52:56;66972.44;;;7.23;90.67
3844;BME280;1937;51.444;6.484;2023-04-25T02:55:23;67076.81;;;7.22;90.95
3844;BME280;1937;51.444;6.484;2023-04-25T02:57:49;66951.84;;;7.03;90.46
3844;BME280;1937;51.444;6.484;2023-04-25T03:00:16;67021.72;;;7.12;90.45
3844;BME280;1937;51.444;6.484;2023-04-25T03:02:43;67077.44;;;7.12;91.17
3844;BME280;1937;51.444;6.484;2023-04-25T03:05:11;67076.72;;;6.80;91.79
3844;BME280;1937;51.444;6.484;2023-04-25T03:07:38;67021.34;;;6.94;91.67
3844;BME280;1937;51.444;6.484;2023-04-25T03:10:06;66912.94;;;6.75;92.14
3844;BME280;1937;51.444;6.484;2023-04-25T03:12:33;67015.19;;;6.86;91.66
3844;BME280;1937;51.444;6.484;2023-04-25T03:14:59;66979.81;;;6.93;91.42
3844;BME280;1937;51.444;6.484;2023-04-25T03:17:26;67009.06;;;7.06;91.11
3844;BME280;1937;51.444;6.484;2023-04-25T03:19:53;67051.94;;;7.16;90.86
3844;BME280;1937;51.444;6.484;2023-04-25T03:22:21;67003.19;;;6.96;90.76
3844;BME280;1937;51.444;6.484;2023-04-25T03:24:48;66986.09;;;6.94;90.70
3844;BME280;1937;51.444;6.484;2023-04-25T03:27:15;67018.78;;;6.94;91.07
3844;BME280;1937;51.444;6.484;2023-04-25T03:29:42;66937.28;;;6.70;91.66
3844;BME280;1937;51.444;6.484;2023-04-25T03:32:08;66965.34;;;6.81;91.45
3844;BME280;1937;51.444;6.484;2023-04-25T03:34:35;66983.34;;;6.85;91.02
3844;BME280;1937;51.444;6.484;2023-04-25T03:37:01;67064.09;;;7.00;90.66
3844;BME280;1937;51.444;6.484;2023-04-25T03:39:29;66977.28;;;6.93;90.88
3844;BME280;1937;51.444;6.484;2023-04-25T03:41:56;66964.69;;;6.76;90.96
3844;BME280;1937;51.444;6.484;2023-04-25T03:44:23;66956.81;;;6.67;91.35
3844;BME280;1937;51.444;6.484;2023-04-25T03:46:50;66951.44;;;6.53;91.90
3844;BME280;1937;51.444;6.484;2023-04-25T03:49:17;66929.66;;;6.58;92.34
3844;BME280;1937;51.444;6.484;2023-04-25T03:51:43;66955.09;;;6.65;91.20
3844;BME280;1937;51.444;6.484;2023-04-25T03:54:10;66975.16;;;6.74;91.89
3844;BME280;1937;51.444;6.484;2023-04-25T03:56:38;66917.53;;;6.48;91.82
3844;BME280;1937;51.444;6.484;2023-04-25T03:59:04;66913.13;;;6.42;92.04
3844;BME280;1937;51.444;6.484;2023-04-25T04:01:31;66957.53;;;6.34;93.01
3844;BME280;1937;51.444;6.484;2023-04-25T04:03:58;66897.38;;;6.35;92.94
3844;BME280;1937;51.444;6.484;2023-04-25T04:06:24;66897.84;;;6.31;92.94
3844;BME280;1937;51.444;6.484;2023-04-25T04:08:51;66932.72;;;6.28;93.38
3844;BME280;1937;51.444;6.484;2023-04-25T04:11:18;66772.88;;;5.86;92.42
3844;BME280;1937;51.444;6.484;2023-04-25T04:13:46;66908.97;;;6.07;93.73
3844;BME280;1937;51.444;6.484;2023-04-25T04:16:12;66921.84;;;6.11;93.29
3844;BME280;1937;51.444;6.484;2023-04-25T04:18:39;66922.16;;;5.87;93.01
3844;BME280;1937;51.444;6.484;2023-04-25T04:21:06;66869.09;;;6.14;92.63
3844;BME280;1937;51.444;6.484;2023-04-25T04:23:32;66857.03;;;5.93;92.76
3844;BME280;1937;51.444;6.484;2023-04-25T04:25:59;66877.06;;;6.01;93.22
3844;BME280;1937;51.444;6.484;2023-04-25T04:28:26;66847.38;;;5.93;92.73
3844;BME280;1937;51.444;6.484;2023-04-25T04:30:54;66898.91;;;6.00;92.83
3844;BME280;1937;51.444;6.484;2023-04-25T04:33:21;66858.63;;;5.63;94.01
3844;BME280;1937;51.444;6.484;2023-04-25T04:35:50;66893.47;;;5.98;93.14
3844;BME280;1937;51.444;6.484;2023-04-25T04:38:18;66904.47;;;5.96;92.44
3844;BME280;1937;51.444;6.484;2023-04-25T04:40:47;66892.88;;;5.97;92.70
3844;BME280;1937;51.444;6.484;2023-04-25T04:43:13;66860.97;;;5.92;92.33
3844;BME280;1937;51.444;6.484;2023-04-25T04:45:42;66867.50;;;5.80;92.62
3844;BME280;1937;51.444;6.484;2023-04-25T04:48:11;66855.31;;;5.80;93.17
3844;BME280;1937;51.444;6.484;2023-04-25T04:50:39;66922.31;;;5.69;93.15
3844;BME280;1937;51.444;6.484;2023-04-25T04:53:07;66805.38;;;5.65;92.11
3844;BME280;1937;51.444;6.484;2023-04-25T04:55:33;66895.25;;;5.88;92.08
3844;BME280;1937;51.444;6.484;2023-04-25T04:58:00;66880.81;;;5.91;91.86
3844;BME280;1937;51.444;6.484;2023-04-25T05:00:26;66898.00;;;5.86;91.83
3844;BME280;1937;51.444;6.484;2023-04-25T05:02:54;66843.91;;;5.90;92.14
3844;BME280;1937;51.444;6.484;2023-04-25T05:05:22;66814.19;;;5.93;91.90
3844;BME280;1937;51.444;6.484;2023-04-25T05:07:49;66904.97;;;5.92;91.30
3844;BME280;1937;51.444;6.484;2023-04-25T05:10:16;66909.63;;;6.23;90.57
3844;BME280;1937;51.444;6.484;2023-04-25T05:12:43;66912.78;;;6.39;90.38
3844;BME280;1937;51.444;6.484;2023-04-25T05:15:10;66936.41;;;6.29;90.64
3844;BME280;1937;51.444;6.484;2023-04-25T05:17:37;66929.97;;;6.45;89.96
3844;BME280;1937;51.444;6.484;2023-04-25T05:20:05;66934.53;;;6.61;88.58
3844;BME280;1937;51.444;6.484;2023-04-25T05:22:33;66942.38;;;6.43;89.49
3844;BME280;1937;51.444;6.484;2023-04-25T05:25:00;66993.53;;;6.70;88.42
3844;BME280;1937;51.444;6.484;2023-04-25T05:27:27;66965.84;;;6.77;87.57
3844;BME280;1937;51.444;6.484;2023-04-25T05:29:53;66866.91;;;6.60;87.07
3844;BME280;1937;51.444;6.484;2023-04-25T05:32:20;66973.09;;;6.70;87.25
3844;BME280;1937;51.444;6.484;2023-04-25T05:34:46;66923.56;;;6.67;87.93
3844;BME280;1937;51.444;6.484;2023-04-25T05:37:13;66971.94;;;6.84;87.96
3844;BME280;1937;51.444;6.484;2023-04-25T05:39:41;67068.91;;;6.86;86.82
3844;BME280;1937;51.444;6.484;2023-04-25T05:42:08;66987.66;;;6.87;87.03
3844;BME280;1937;51.444;6.484;2023-04-25T05:44:35;66901.13;;;6.67;87.62
3844;BME280;1937;51.444;6.484;2023-04-25T05:47:02;66997.72;;;6.67;88.07
3844;BME280;1937;51.444;6.484;2023-04-25T05:49:29;66954.91;;;6.72;88.24
3844;BME280;1937;51.444;6.484;2023-04-25T05:51:56;66933.22;;;6.66;88.12
3844;BME280;1937;51.444;6.484;2023-04-25T05:54:23;66930.25;;;6.59;87.65
3844;BME280;1937;51.444;6.484;2023-04-25T05:56:51;66961.09;;;6.68;88.17
3844;BME280;1937;51.444;6.484;2023-04-25T05:59:17;66960.66;;;6.61;87.84
3844;BME280;1937;51.444;6.484;2023-04-25T06:01:44;66977.66;;;6.85;87.90
3844;BME280;1937;51.444;6.484;2023-04-25T06:04:11;66993.97;;;7.19;86.34
3844;BME280;1937;51.444;6.484;2023-04-25T06:06:38;67029.47;;;7.44;85.59
3844;BME280;1937;51.444;6.484;2023-04-25T06:09:05;67046.13;;;7.38;84.92
3844;BME280;1937;51.444;6.484;2023-04-25T06:11:31;66939.41;;;7.21;84.54
3844;BME280;1937;51.444;6.484;2023-04-25T06:14:00;67064.06;;;7.38;85.30
3844;BME280;1937;51.444;6.484;2023-04-25T06:16:27;67009.91;;;7.20;85.07
3844;BME280;1937;51.444;6.484;2023-04-25T06:18:53;66980.38;;;7.21;84.69
3844;BME280;1937;51.444;6.484;2023-04-25T06:21:20;67002.81;;;7.20;84.64
3844;BME280;1937;51.444;6.484;2023-04-25T06:23:47;67043.19;;;7.20;85.71
3844;BME280;1937;51.444;6.484;2023-04-25T06:26:13;67031.84;;;7.34;85.03
3844;BME280;1937;51.444;6.484;2023-04-25T06:28:40;67030.31;;;7.58;83.52
3844;BME280;1937;51.444;6.484;2023-04-25T06:31:08;67075.09;;;7.63;82.58
3844;BME280;1937;51.444;6.484;2023-04-25T06:33:35;67033.69;;;7.56;83.59
3844;BME280;1937;51.444;6.484;2023-04-25T06:36:01;67073.72;;;7.80;83.75
3844;BME280;1937;51.444;6.484;2023-04-25T06:38:28;67102.13;;;8.05;82.93
3844;BME280;1937;51.444;6.484;2023-04-25T06:40:55;67129.50;;;8.22;81.54
3844;BME280;1937;51.444;6.484;2023-04-25T06:43:21;67119.06;;;8.13;79.84
3844;BME280;1937;51.444;6.484;2023-04-25T06:45:48;67126.38;;;8.21;79.76
3844;BME280;1937;51.444;6.484;2023-04-25T06:48:16;67153.03;;;8.29;78.66
3844;BME280;1937;51.444;6.484;2023-04-25T06:50:42;67089.22;;;8.16;79.25
3844;BME280;1937;51.444;6.484;2023-04-25T06:53:09;67090.38;;;8.01;79.23
3844;BME280;1937;51.444;6.484;2023-04-25T06:55:36;67059.94;;;7.88;80.38
3844;BME280;1937;51.444;6.484;2023-04-25T06:58:03;67088.78;;;7.93;79.87
3844;BME280;1937;51.444;6.484;2023-04-25T07:00:30;67075.97;;;7.93;80.51
3844;BME280;1937;51.444;6.484;2023-04-25T07:02:57;67141.72;;;8.33;80.32
3844;BME280;1937;51.444;6.484;2023-04-25T07:05:25;67087.50;;;8.14;78.56
3844;BME280;1937;51.444;6.484;2023-04-25T07:07:52;67114.06;;;7.91;77.75
3844;BME280;1937;51.444;6.484;2023-04-25T07:10:18;67036.47;;;7.97;78.58
3844;BME280;1937;51.444;6.484;2023-04-25T07:12:46;67064.06;;;7.96;78.29
3844;BME280;1937;51.444;6.484;2023-04-25T07:15:13;67123.53;;;8.08;78.15
3844;BME280;1937;51.444;6.484;2023-04-25T07:17:39;67085.66;;;8.08;78.24
3844;BME280;1937;51.444;6.484;2023-04-25T07:20:07;67153.84;;;8.28;78.72
3844;BME280;1937;51.444;6.484;2023-04-25T07:22:35;67121.78;;;8.49;75.22
3844;BME280;1937;51.444;6.484;2023-04-25T07:25:02;67112.59;;;8.61;75.88
3844;BME280;1937;51.444;6.484;2023-04-25T07:27:30;67139.50;;;8.51;74.76
3844;BME280;1937;51.444;6.484;2023-04-25T07:29:56;67137.59;;;8.56;73.76
3844;BME280;1937;51.444;6.484;2023-04-25T07:32:23;67160.78;;;8.76;75.05
3844;BME280;1937;51.444;6.484;2023-04-25T07:34:50;67238.06;;;9.06;73.75
3844;BME280;1937;51.444;6.484;2023-04-25T07:37:17;67250.25;;;9.16;73.24
3844;BME280;1937;51.444;6.484;2023-04-25T07:39:45;67149.09;;;9.09;71.57
3844;BME280;1937;51.444;6.484;2023-04-25T07:42:12;67215.88;;;9.40;70.68
3844;BME280;1937;51.444;6.484;2023-04-25T07:44:39;67122.91;;;9.28;69.73
3844;BME280;1937;51.444;6.484;2023-04-25T07:47:08;67185.47;;;9.16;71.07
3844;BME280;1937;51.444;6.484;2023-04-25T07:49:35;67163.53;;;9.01;71.96
3844;BME280;1937;51.444;6.484;2023-04-25T07:52:03;67200.72;;;9.22;72.58
3844;BME280;1937;51.444;6.484;2023-04-25T07:54:30;67231.75;;;9.83;70.27
3844;BME280;1937;51.444;6.484;2023-04-25T07:56:59;67328.63;;;10.47;68.59
3844;BME280;1937;51.444;6.484;2023-04-25T07:59:26;67349.38;;;10.25;67.62
3844;BME280;1937;51.444;6.484;2023-04-25T08:01:52;67275.25;;;10.37;66.60
3844;BME280;1937;51.444;6.484;2023-04-25T08:04:19;67353.84;;;10.36;67.19
3844;BME280;1937;51.444;6.484;2023-04-25T08:06:46;67371.69;;;10.58;66.38
3844;BME280;1937;51.444;6.484;2023-04-25T08:09:13;67195.56;;;10.05;65.56
3844;BME280;1937;51.444;6.484;2023-04-25T08:11:41;67155.88;;;9.53;67.84
3844;BME280;1937;51.444;6.484;2023-04-25T08:14:09;67219.06;;;9.92;69.20
3844;BME280;1937;51.444;6.484;2023-04-25T08:16:36;67370.59;;;10.61;66.31
3844;BME280;1937;51.444;6.484;2023-04-25T08:19:03;67385.78;;;10.79;64.62
3844;BME280;1937;51.444;6.484;2023-04-25T08:21:31;67373.06;;;10.88;65.83
3844;BME280;1937;51.444;6.484;2023-04-25T08:23:58;67440.34;;;10.91;65.48
3844;BME280;1937;51.444;6.484;2023-04-25T08:26:25;67419.50;;;10.77;65.11
3844;BME280;1937;51.444;6.484;2023-04-25T08:28:52;67417.75;;;10.76;64.20
3844;BME280;1937;51.444;6.484;2023-04-25T08:31:20;67377.94;;;11.06;63.23
3844;BME280;1937;51.444;6.484;2023-04-25T08:33:47;67415.22;;;11.12;62.31
3844;BME280;1937;51.444;6.484;2023-04-25T08:36:16;67345.28;;;11.04;62.01
3844;BME280;1937;51.444;6.484;2023-04-25T08:38:44;67414.97;;;11.49;62.07
3844;BME280;1937;51.444;6.484;2023-04-25T08:41:16;67454.16;;;11.45;61.22
3844;BME280;1937;51.444;6.484;2023-04-25T08:43:44;67438.53;;;11.52;59.16
3844;BME280;1937;51.444;6.484;2023-04-25T08:46:12;67420.72;;;11.50;60.56
3844;BME280;1937;51.444;6.484;2023-04-25T08:48:42;67388.75;;;11.38;60.41
3844;BME280;1937;51.444;6.484;2023-04-25T08:51:15;67498.84;;;11.96;60.54
3844;BME280;1937;51.444;6.484;2023-04-25T08:53:51;67537.97;;;12.43;57.44
3844;BME280;1937;51.444;6.484;2023-04-25T08:56:19;67616.44;;;12.87;56.63
3844;BME280;1937;51.444;6.484;2023-04-25T08:58:49;67546.72;;;12.51;56.34
3844;BME280;1937;51.444;6.484;2023-04-25T09:01:23;67485.53;;;11.88;56.05
3844;BME280;1937;51.444;6.484;2023-04-25T09:03:52;67421.88;;;11.87;56.39
3844;BME280;1937;51.444;6.484;2023-04-25T09:06:19;67367.63;;;11.62;56.97
3844;BME280;1937;51.444;6.484;2023-04-25T09:08:46;67405.28;;;11.70;58.27
3844;BME280;1937;51.444;6.484;2023-04-25T09:11:13;67312.56;;;10.98;57.14
3844;BME280;1937;51.444;6.484;2023-04-25T09:13:40;67363.53;;;11.18;59.33
3844;BME280;1937;51.444;6.484;2023-04-25T09:16:06;67269.19;;;11.05;59.02
3844;BME280;1937;51.444;6.484;2023-04-25T09:18:34;67369.22;;;10.98;59.27
3844;BME280;1937;51.444;6.484;2023-04-25T09:21:07;67259.59;;;10.59;57.52
3844;BME280;1937;51.444;6.484;2023-04-25T09:23:43;67183.72;;;10.33;57.22
3844;BME280;1937;51.444;6.484;2023-04-25T09:26:14;67252.00;;;10.48;58.67
3844;BME280;1937;51.444;6.484;2023-04-25T09:28:42;67299.88;;;10.92;60.03
3844;BME280;1937;51.444;6.484;2023-04-25T09:31:10;67310.06;;;11.03;59.12
3844;BME280;1937;51.444;6.484;2023-04-25T09:33:37;67289.13;;;11.00;58.30
3844;BME280;1937;51.444;6.484;2023-04-25T09:36:08;67325.56;;;11.07;57.78
3844;BME280;1937;51.444;6.484;2023-04-25T09:38:40;67333.19;;;11.19;56.68
3844;BME280;1937;51.444;6.484;2023-04-25T09:41:07;67333.44;;;11.17;56.93
3844;BME280;1937;51.444;6.484;2023-04-25T09:43:34;67396.50;;;11.58;57.53
3844;BME280;1937;51.444;6.484;2023-04-25T09:46:01;67412.28;;;11.76;55.55
3844;BME280;1937;51.444;6.484;2023-04-25T09:48:28;67351.75;;;11.35;56.10
3844;BME280;1937;51.444;6.484;2023-04-25T09:51:07;67453.34;;;11.83;57.63
3844;BME280;1937;51.444;6.484;2023-04-25T09:53:34;67494.44;;;11.89;55.36
3844;BME280;1937;51.444;6.484;2023-04-25T09:56:04;67563.66;;;12.70;53.86
3844;BME280;1937;51.444;6.484;2023-04-25T09:58:33;67536.84;;;12.62;51.44
3844;BME280;1937;51.444;6.484;2023-04-25T10:01:02;67397.69;;;11.79;53.14
3844;BME280;1937;51.444;6.484;2023-04-25T10:03:30;67396.97;;;11.70;54.65
3844;BME280;1937;51.444;6.484;2023-04-25T10:05:59;67354.88;;;11.51;54.91
3844;BME280;1937;51.444;6.484;2023-04-25T10:08:32;67378.09;;;11.71;55.44
3844;BME280;1937;51.444;6.484;2023-04-25T10:11:00;67430.34;;;11.76;56.20
3844;BME280;1937;51.444;6.484;2023-04-25T10:13:29;67302.19;;;11.14;58.92
3844;BME280;1937;51.444;6.484;2023-04-25T10:15:57;67306.78;;;11.14;55.87
3844;BME280;1937;51.444;6.484;2023-04-25T10:18:25;67347.50;;;11.38;57.68
3844;BME280;1937;51.444;6.484;2023-04-25T10:20:53;67365.19;;;11.51;57.28
3844;BME280;1937;51.444;6.484;2023-04-25T10:23:20;67322.81;;;11.14;57.02
3844;BME280;1937;51.444;6.484;2023-04-25T10:25:49;67312.47;;;11.50;57.18
3844;BME280;1937;51.444;6.484;2023-04-25T10:28:16;67521.84;;;12.38;56.68
3844;BME280;1937;51.444;6.484;2023-04-25T10:30:57;67524.81;;;12.45;53.64
3844;BME280;1937;51.444;6.484;2023-04-25T10:33:30;67403.06;;;11.93;54.91
3844;BME280;1937;51.444;6.484;2023-04-25T10:35:58;67478.28;;;12.20;55.17
3844;BME280;1937;51.444;6.484;2023-04-25T10:38:26;67478.25;;;12.36;55.42
3844;BME280;1937;51.444;6.484;2023-04-25T10:41:08;67524.13;;;12.56;53.42
3844;BME280;1937;51.444;6.484;2023-04-25T10:43:36;67549.50;;;12.85;53.35
3844;BME280;1937;51.444;6.484;2023-04-25T10:46:13;67610.69;;;13.06;52.74
3844;BME280;1937;51.444;6.484;2023-04-25T10:48:45;67657.88;;;13.47;52.48
3844;BME280;1937;51.444;6.484;2023-04-25T10:51:19;67708.19;;;13.89;50.31
3844;BME280;1937;51.444;6.484;2023-04-25T10:53:46;67744.47;;;14.14;51.08
3844;BME280;1937;51.444;6.484;2023-04-25T10:56:19;67790.28;;;14.20;50.08
3844;BME280;1937;51.444;6.484;2023-04-25T10:58:46;67683.28;;;13.76;50.06
3844;BME280;1937;51.444;6.484;2023-04-25T11:01:13;67569.41;;;13.11;52.57
3844;BME280;1937;51.444;6.484;2023-04-25T11:03:42;67546.69;;;12.87;54.08
3844;BME280;1937;51.444;6.484;2023-04-25T11:06:18;67503.19;;;12.38;55.77
3844;BME280;1937;51.444;6.484;2023-04-25T11:08:48;67563.81;;;12.43;53.90
3844;BME280;1937;51.444;6.484;2023-04-25T11:11:18;67454.59;;;12.09;55.11
3844;BME280;1937;51.444;6.484;2023-04-25T11:13:47;67469.75;;;12.06;54.72
3844;BME280;1937;51.444;6.484;2023-04-25T11:16:14;67558.78;;;12.52;54.52
3844;BME280;1937;51.444;6.484;2023-04-25T11:18:41;67541.44;;;12.82;54.11
3844;BME280;1937;51.444;6.484;2023-04-25T11:21:08;67430.81;;;12.28;54.53
3844;BME280;1937;51.444;6.484;2023-04-25T11:23:35;67392.75;;;11.57;56.17
3844;BME280;1937;51.444;6.484;2023-04-25T11:26:02;67173.66;;;9.75;62.48
3844;BME280;1937;51.444;6.484;2023-04-25T11:28:30;67120.06;;;9.46;67.08
3844;BME280;1937;51.444;6.484;2023-04-25T11:30:58;67080.16;;;9.31;68.43
3844;BME280;1937;51.444;6.484;2023-04-25T11:33:26;66965.16;;;8.55;71.37
3844;BME280;1937;51.444;6.484;2023-04-25T11:35:53;66971.13;;;8.54;71.72
3844;BME280;1937;51.444;6.484;2023-04-25T11:38:22;67129.63;;;9.36;72.27
3844;BME280;1937;51.444;6.484;2023-04-25T11:40:50;67085.59;;;9.50;71.34
3844;BME280;1937;51.444;6.484;2023-04-25T11:43:17;67134.28;;;9.61;69.39
3844;BME280;1937;51.444;6.484;2023-04-25T11:45:49;67176.28;;;9.79;70.85
3844;BME280;1937;51.444;6.484;2023-04-25T11:48:16;67147.28;;;9.70;69.41
3844;BME280;1937;51.444;6.484;2023-04-25T11:50:43;67088.91;;;9.79;69.72
3844;BME280;1937;51.444;6.484;2023-04-25T11:53:09;67220.88;;;9.98;69.59
3844;BME280;1937;51.444;6.484;2023-04-25T11:55:37;67160.16;;;9.90;70.50
3844;BME280;1937;51.444;6.484;2023-04-25T11:58:05;67200.88;;;9.99;70.56
3844;BME280;1937;51.444;6.484;2023-04-25T12:00:34;67273.44;;;10.31;68.75
3844;BME280;1937;51.444;6.484;2023-04-25T12:03:02;67332.47;;;10.73;67.75
3844;BME280;1937;51.444;6.484;2023-04-25T12:05:31;67330.00;;;10.98;65.05
3844;BME280;1937;51.444;6.484;2023-04-25T12:08:09;67314.13;;;11.06;64.86
3844;BME280;1937;51.444;6.484;2023-04-25T12:10:38;67434.56;;;11.22;64.63
3844;BME280;1937;51.444;6.484;2023-04-25T12:13:20;67395.72;;;11.44;63.54
3844;BME280;1937;51.444;6.484;2023-04-25T12:15:47;67301.25;;;11.27;63.04
3844;BME280;1937;51.444;6.484;2023-04-25T12:18:19;67370.13;;;11.37;62.36
3844;BME280;1937;51.444;6.484;2023-04-25T12:20:45;67460.22;;;11.48;62.22
3844;BME280;1937;51.444;6.484;2023-04-25T12:23:12;67444.16;;;11.64;63.19
3844;BME280;1937;51.444;6.484;2023-04-25T12:25:41;67453.31;;;11.99;60.82
3844;BME280;1937;51.444;6.484;2023-04-25T12:28:11;67526.53;;;12.26;61.20
3844;BME280;1937;51.444;6.484;2023-04-25T12:30:59;67552.06;;;12.44;60.29
3844;BME280;1937;51.444;6.484;2023-04-25T12:33:29;67496.28;;;12.16;61.25
3844;BME280;1937;51.444;6.484;2023-04-25T12:35:56;67417.16;;;11.78;60.47
3844;BME280;1937;51.444;6.484;2023-04-25T12:38:24;67492.34;;;12.21;59.83
3844;BME280;1937;51.444;6.484;2023-04-25T12:40:51;67493.72;;;12.36;56.26
3844;BME280;1937;51.444;6.484;2023-04-25T12:43:18;67590.25;;;12.84;55.66
3844;BME280;1937;51.444;6.484;2023-04-25T12:45:45;67532.78;;;12.79;52.20
3844;BME280;1937;51.444;6.484;2023-04-25T12:48:13;67579.03;;;13.01;53.65
3844;BME280;1937;51.444;6.484;2023-04-25T12:50:42;67638.66;;;13.51;49.59
3844;BME280;1937;51.444;6.484;2023-04-25T12:53:08;67489.00;;;12.68;52.05
3844;BME280;1937;51.444;6.484;2023-04-25T12:55:35;67560.50;;;12.90;51.63
3844;BME280;1937;51.444;6.484;2023-04-25T12:58:02;67438.47;;;12.44;49.36
3844;BME280;1937;51.444;6.484;2023-04-25T13:00:28;67396.41;;;12.10;51.09
3844;BME280;1937;51.444;6.484;2023-04-25T13:02:55;67331.34;;;11.69;51.44
3844;BME280;1937;51.444;6.484;2023-04-25T13:05:22;67351.41;;;11.48;52.47
3844;BME280;1937;51.444;6.484;2023-04-25T13:07:50;67260.94;;;11.09;55.18
3844;BME280;1937;51.444;6.484;2023-04-25T13:10:17;67284.09;;;10.89;59.37
3844;BME280;1937;51.444;6.484;2023-04-25T13:12:44;67235.09;;;10.64;60.42
3844;BME280;1937;51.444;6.484;2023-04-25T13:15:11;67211.59;;;10.62;58.67
3844;BME280;1937;51.444;6.484;2023-04-25T13:17:37;67222.41;;;10.58;60.26
3844;BME280;1937;51.444;6.484;2023-04-25T13:20:05;67317.78;;;11.03;59.88
3844;BME280;1937;51.444;6.484;2023-04-25T13:22:33;67342.06;;;11.20;57.86
3844;BME280;1937;51.444;6.484;2023-04-25T13:25:03;67326.31;;;11.37;57.11
3844;BME280;1937;51.444;6.484;2023-04-25T13:27:31;67434.81;;;12.07;55.73
3844;BME280;1937;51.444;6.484;2023-04-25T13:29:59;67500.63;;;12.58;53.42
3844;BME280;1937;51.444;6.484;2023-04-25T13:32:26;67434.94;;;12.16;53.67